sensor_id;sensor_type;location;lat;lon;timestamp;P1;durP1;ratioP1;P2;durP2;ratioP2
61460;SDS011;47325;50.506;4.472;2023-04-16T00:00:29;5.70;;;3.10;;
61460;SDS011;47325;50.506;4.472;2023-04-16T00:06:13;6.20;;;2.80;;
61460;SDS011;47325;50.506;4.472;2023-04-16T00:11:59;4.90;;;2.80;;
61460;SDS011;47325;50.506;4.472;2023-04-16T00:17:43;5.30;;;2.70;;
61460;SDS011;47325;50.506;4.472;2023-04-16T00:23:28;7.40;;;3.00;;
61460;SDS011;47325;50.506;4.472;2023-04-16T00:29:12;7.90;;;3.00;;
61460;SDS011;47325;50.506;4.472;2023-04-16T00:34:55;6.10;;;3.00;;
61460;SDS011;47325;50.506;4.472;2023-04-16T00:40:39;6.40;;;3.10;;
61460;SDS011;47325;50.506;4.472;2023-04-16T00:46:24;5.10;;;3.10;;
61460;SDS011;47325;50.506;4.472;2023-04-16T00:52:09;6.60;;;3.40;;
61460;SDS011;47325;50.506;4.472;2023-04-16T00:57:54;6.00;;;3.40;;
61460;SDS011;47325;50.506;4.472;2023-04-16T01:03:42;7.40;;;4.10;;
61460;SDS011;47325;50.506;4.472;2023-04-16T01:09:27;6.30;;;4.00;;
61460;SDS011;47325;50.506;4.472;2023-04-16T01:15:11;7.20;;;4.20;;
61460;SDS011;47325;50.506;4.472;2023-04-16T01:20:55;6.60;;;4.00;;
61460;SDS011;47325;50.506;4.472;2023-04-16T01:26:39;4.90;;;4.10;;
61460;SDS011;47325;50.506;4.472;2023-04-16T01:32:23;6.10;;;4.10;;
61460;SDS011;47325;50.506;4.472;2023-04-16T01:38:08;6.40;;;4.10;;
61460;SDS011;47325;50.506;4.472;2023-04-16T01:43:52;5.60;;;3.90;;
61460;SDS011;47325;50.506;4.472;2023-04-16T01:49:36;5.50;;;3.70;;
61460;SDS011;47325;50.506;4.472;2023-04-16T01:55:20;4.20;;;3.50;;
61460;SDS011;47325;50.506;4.472;2023-04-16T02:01:05;5.70;;;3.60;;
61460;SDS011;47325;50.506;4.472;2023-04-16T02:06:50;6.50;;;3.60;;
61460;SDS011;47325;50.506;4.472;2023-04-16T02:12:34;8.20;;;4.00;;
61460;SDS011;47325;50.506;4.472;2023-04-16T02:18:18;6.10;;;3.50;;
61460;SDS011;47325;50.506;4.472;2023-04-16T02:24:03;4.40;;;3.30;;
61460;SDS011;47325;50.506;4.472;2023-04-16T02:29:47;5.00;;;3.30;;
61460;SDS011;47325;50.506;4.472;2023-04-16T02:35:31;5.50;;;2.90;;
61460;SDS011;47325;50.506;4.472;2023-04-16T02:41:15;5.50;;;3.00;;
61460;SDS011;47325;50.506;4.472;2023-04-16T02:46:59;5.20;;;2.90;;
61460;SDS011;47325;50.506;4.472;2023-04-16T02:52:43;6.20;;;3.20;;
61460;SDS011;47325;50.506;4.472;2023-04-16T02:58:27;4.50;;;2.80;;
61460;SDS011;47325;50.506;4.472;2023-04-16T03:04:11;4.60;;;2.60;;
61460;SDS011;47325;50.506;4.472;2023-04-16T03:09:55;5.20;;;2.90;;
61460;SDS011;47325;50.506;4.472;2023-04-16T03:15:41;3.50;;;2.80;;
61460;SDS011;47325;50.506;4.472;2023-04-16T03:21:30;5.50;;;2.90;;
61460;SDS011;47325;50.506;4.472;2023-04-16T03:27:14;4.50;;;2.80;;
61460;SDS011;47325;50.506;4.472;2023-04-16T03:32:58;4.40;;;2.90;;
61460;SDS011;47325;50.506;4.472;2023-04-16T03:38:42;4.10;;;2.50;;
61460;SDS011;47325;50.506;4.472;2023-04-16T03:44:27;4.80;;;2.50;;
61460;SDS011;47325;50.506;4.472;2023-04-16T03:50:11;3.60;;;2.50;;
61460;SDS011;47325;50.506;4.472;2023-04-16T03:55:55;5.50;;;2.50;;
61460;SDS011;47325;50.506;4.472;2023-04-16T04:01:39;6.60;;;2.70;;
61460;SDS011;47325;50.506;4.472;2023-04-16T04:07:23;5.20;;;2.50;;
61460;SDS011;47325;50.506;4.472;2023-04-16T04:13:07;3.90;;;2.20;;
61460;SDS011;47325;50.506;4.472;2023-04-16T04:18:52;3.40;;;2.40;;
61460;SDS011;47325;50.506;4.472;2023-04-16T04:24:36;4.70;;;2.20;;
61460;SDS011;47325;50.506;4.472;2023-04-16T04:30:20;3.70;;;2.50;;
61460;SDS011;47325;50.506;4.472;2023-04-16T04:36:06;4.20;;;2.10;;
61460;SDS011;47325;50.506;4.472;2023-04-16T04:41:50;4.10;;;2.20;;
61460;SDS011;47325;50.506;4.472;2023-04-16T04:47:34;4.50;;;2.30;;
61460;SDS011;47325;50.506;4.472;2023-04-16T04:53:18;4.80;;;1.90;;
61460;SDS011;47325;50.506;4.472;2023-04-16T04:59:02;5.90;;;1.90;;
61460;SDS011;47325;50.506;4.472;2023-04-16T05:04:46;3.00;;;1.80;;
61460;SDS011;47325;50.506;4.472;2023-04-16T05:10:30;4.80;;;1.90;;
61460;SDS011;47325;50.506;4.472;2023-04-16T05:16:14;2.90;;;1.90;;
61460;SDS011;47325;50.506;4.472;2023-04-16T05:21:58;5.40;;;1.90;;
61460;SDS011;47325;50.506;4.472;2023-04-16T05:27:42;5.00;;;1.80;;
61460;SDS011;47325;50.506;4.472;2023-04-16T05:33:27;2.40;;;1.70;;
61460;SDS011;47325;50.506;4.472;2023-04-16T05:39:11;2.90;;;1.70;;
61460;SDS011;47325;50.506;4.472;2023-04-16T05:44:55;3.70;;;1.80;;
61460;SDS011;47325;50.506;4.472;2023-04-16T05:50:39;3.80;;;1.80;;
61460;SDS011;47325;50.506;4.472;2023-04-16T05:56:23;2.90;;;1.70;;
61460;SDS011;47325;50.506;4.472;2023-04-16T06:02:08;4.20;;;1.70;;
61460;SDS011;47325;50.506;4.472;2023-04-16T06:07:53;3.10;;;1.90;;
61460;SDS011;47325;50.506;4.472;2023-04-16T06:13:38;6.10;;;2.00;;
61460;SDS011;47325;50.506;4.472;2023-04-16T06:19:22;3.20;;;1.80;;
61460;SDS011;47325;50.506;4.472;2023-04-16T06:25:06;4.20;;;1.80;;
61460;SDS011;47325;50.506;4.472;2023-04-16T06:30:50;4.40;;;1.80;;
61460;SDS011;47325;50.506;4.472;2023-04-16T06:36:34;6.50;;;2.00;;
61460;SDS011;47325;50.506;4.472;2023-04-16T06:42:18;4.40;;;1.80;;
61460;SDS011;47325;50.506;4.472;2023-04-16T06:48:03;4.10;;;1.70;;
61460;SDS011;47325;50.506;4.472;2023-04-16T06:53:47;4.40;;;1.90;;
61460;SDS011;47325;50.506;4.472;2023-04-16T06:59:32;4.70;;;1.90;;
61460;SDS011;47325;50.506;4.472;2023-04-16T07:05:16;3.30;;;1.60;;
61460;SDS011;47325;50.506;4.472;2023-04-16T07:11:01;4.40;;;1.80;;
61460;SDS011;47325;50.506;4.472;2023-04-16T07:16:45;3.40;;;1.70;;
61460;SDS011;47325;50.506;4.472;2023-04-16T07:22:31;3.70;;;1.60;;
61460;SDS011;47325;50.506;4.472;2023-04-16T07:28:15;3.20;;;1.80;;
61460;SDS011;47325;50.506;4.472;2023-04-16T07:33:59;5.50;;;1.80;;
61460;SDS011;47325;50.506;4.472;2023-04-16T07:39:43;4.70;;;1.70;;
61460;SDS011;47325;50.506;4.472;2023-04-16T07:45:27;5.60;;;1.80;;
61460;SDS011;47325;50.506;4.472;2023-04-16T07:51:11;6.60;;;1.80;;
61460;SDS011;47325;50.506;4.472;2023-04-16T07:56:55;3.50;;;1.70;;
61460;SDS011;47325;50.506;4.472;2023-04-16T08:02:39;3.70;;;1.60;;
61460;SDS011;47325;50.506;4.472;2023-04-16T08:08:26;5.30;;;1.80;;
61460;SDS011;47325;50.506;4.472;2023-04-16T08:14:10;4.20;;;1.90;;
61460;SDS011;47325;50.506;4.472;2023-04-16T08:19:54;5.00;;;2.00;;
61460;SDS011;47325;50.506;4.472;2023-04-16T08:25:38;4.10;;;2.20;;
61460;SDS011;47325;50.506;4.472;2023-04-16T08:31:22;4.30;;;2.20;;
61460;SDS011;47325;50.506;4.472;2023-04-16T08:37:07;4.50;;;2.40;;
61460;SDS011;47325;50.506;4.472;2023-04-16T08:42:52;4.90;;;2.70;;
61460;SDS011;47325;50.506;4.472;2023-04-16T08:48:36;4.40;;;2.50;;
61460;SDS011;47325;50.506;4.472;2023-04-16T08:54:24;6.80;;;3.00;;
61460;SDS011;47325;50.506;4.472;2023-04-16T09:00:13;4.90;;;2.50;;
61460;SDS011;47325;50.506;4.472;2023-04-16T09:05:59;5.60;;;2.90;;
61460;SDS011;47325;50.506;4.472;2023-04-16T09:11:45;7.10;;;3.00;;
61460;SDS011;47325;50.506;4.472;2023-04-16T09:17:33;6.00;;;2.70;;
61460;SDS011;47325;50.506;4.472;2023-04-16T09:23:17;5.50;;;2.90;;
61460;SDS011;47325;50.506;4.472;2023-04-16T09:29:01;5.90;;;3.20;;
61460;SDS011;47325;50.506;4.472;2023-04-16T09:34:58;7.30;;;3.10;;
61460;SDS011;47325;50.506;4.472;2023-04-16T09:40:44;7.30;;;3.80;;
61460;SDS011;47325;50.506;4.472;2023-04-16T09:46:30;7.80;;;3.80;;
61460;SDS011;47325;50.506;4.472;2023-04-16T09:52:16;7.20;;;3.80;;
61460;SDS011;47325;50.506;4.472;2023-04-16T09:58:03;7.40;;;4.00;;
61460;SDS011;47325;50.506;4.472;2023-04-16T10:03:48;7.40;;;4.10;;
61460;SDS011;47325;50.506;4.472;2023-04-16T10:09:34;8.30;;;4.30;;
61460;SDS011;47325;50.506;4.472;2023-04-16T10:15:19;10.10;;;4.70;;
61460;SDS011;47325;50.506;4.472;2023-04-16T10:21:04;9.20;;;4.70;;
61460;SDS011;47325;50.506;4.472;2023-04-16T10:26:49;10.20;;;4.50;;
61460;SDS011;47325;50.506;4.472;2023-04-16T10:32:34;9.30;;;5.20;;
61460;SDS011;47325;50.506;4.472;2023-04-16T10:38:28;9.60;;;5.30;;
61460;SDS011;47325;50.506;4.472;2023-04-16T10:44:12;8.70;;;5.10;;
61460;SDS011;47325;50.506;4.472;2023-04-16T10:49:56;9.00;;;5.20;;
61460;SDS011;47325;50.506;4.472;2023-04-16T10:55:41;10.00;;;5.50;;
61460;SDS011;47325;50.506;4.472;2023-04-16T11:01:34;9.90;;;5.00;;
61460;SDS011;47325;50.506;4.472;2023-04-16T11:07:19;9.10;;;5.60;;
61460;SDS011;47325;50.506;4.472;2023-04-16T11:13:05;9.40;;;5.30;;
61460;SDS011;47325;50.506;4.472;2023-04-16T11:18:49;7.30;;;5.00;;
61460;SDS011;47325;50.506;4.472;2023-04-16T11:24:37;9.50;;;5.00;;
61460;SDS011;47325;50.506;4.472;2023-04-16T11:30:27;8.40;;;4.90;;
61460;SDS011;47325;50.506;4.472;2023-04-16T11:36:11;6.90;;;4.70;;
61460;SDS011;47325;50.506;4.472;2023-04-16T11:41:55;7.40;;;4.70;;
61460;SDS011;47325;50.506;4.472;2023-04-16T11:47:45;6.60;;;4.70;;
61460;SDS011;47325;50.506;4.472;2023-04-16T11:53:29;7.60;;;4.50;;
61460;SDS011;47325;50.506;4.472;2023-04-16T11:59:14;7.30;;;4.30;;
61460;SDS011;47325;50.506;4.472;2023-04-16T12:04:58;7.00;;;4.50;;
61460;SDS011;47325;50.506;4.472;2023-04-16T12:16:39;8.40;;;4.60;;
61460;SDS011;47325;50.506;4.472;2023-04-16T12:22:29;8.10;;;4.80;;
61460;SDS011;47325;50.506;4.472;2023-04-16T12:28:17;8.60;;;4.90;;
61460;SDS011;47325;50.506;4.472;2023-04-16T12:34:06;8.70;;;4.90;;
61460;SDS011;47325;50.506;4.472;2023-04-16T12:39:50;9.00;;;4.90;;
61460;SDS011;47325;50.506;4.472;2023-04-16T12:45:34;7.80;;;4.60;;
61460;SDS011;47325;50.506;4.472;2023-04-16T12:51:19;8.00;;;4.90;;
61460;SDS011;47325;50.506;4.472;2023-04-16T12:57:03;8.10;;;5.00;;
61460;SDS011;47325;50.506;4.472;2023-04-16T13:02:48;8.60;;;5.10;;
61460;SDS011;47325;50.506;4.472;2023-04-16T13:08:33;9.40;;;5.50;;
61460;SDS011;47325;50.506;4.472;2023-04-16T13:14:18;10.40;;;5.80;;
61460;SDS011;47325;50.506;4.472;2023-04-16T13:20:02;10.90;;;5.60;;
61460;SDS011;47325;50.506;4.472;2023-04-16T13:25:46;8.80;;;5.60;;
61460;SDS011;47325;50.506;4.472;2023-04-16T13:31:32;10.70;;;6.00;;
61460;SDS011;47325;50.506;4.472;2023-04-16T13:37:16;10.30;;;5.60;;
61460;SDS011;47325;50.506;4.472;2023-04-16T13:43:00;11.40;;;5.80;;
61460;SDS011;47325;50.506;4.472;2023-04-16T13:48:48;11.20;;;6.40;;
61460;SDS011;47325;50.506;4.472;2023-04-16T13:54:32;10.90;;;6.20;;
61460;SDS011;47325;50.506;4.472;2023-04-16T14:00:17;10.30;;;6.30;;
61460;SDS011;47325;50.506;4.472;2023-04-16T14:06:01;10.80;;;7.00;;
61460;SDS011;47325;50.506;4.472;2023-04-16T14:11:45;11.10;;;6.80;;
61460;SDS011;47325;50.506;4.472;2023-04-16T14:17:29;11.30;;;6.70;;
61460;SDS011;47325;50.506;4.472;2023-04-16T14:23:13;12.10;;;7.00;;
61460;SDS011;47325;50.506;4.472;2023-04-16T14:28:58;11.00;;;6.80;;
61460;SDS011;47325;50.506;4.472;2023-04-16T14:34:42;12.80;;;7.00;;
61460;SDS011;47325;50.506;4.472;2023-04-16T14:40:27;11.80;;;6.90;;
61460;SDS011;47325;50.506;4.472;2023-04-16T14:46:11;13.50;;;7.00;;
61460;SDS011;47325;50.506;4.472;2023-04-16T14:51:55;10.20;;;6.90;;
61460;SDS011;47325;50.506;4.472;2023-04-16T14:57:39;12.00;;;7.40;;
61460;SDS011;47325;50.506;4.472;2023-04-16T15:03:23;12.60;;;7.60;;
61460;SDS011;47325;50.506;4.472;2023-04-16T15:09:09;12.70;;;7.50;;
61460;SDS011;47325;50.506;4.472;2023-04-16T15:14:53;12.10;;;7.80;;
61460;SDS011;47325;50.506;4.472;2023-04-16T15:20:37;11.60;;;8.10;;
61460;SDS011;47325;50.506;4.472;2023-04-16T15:26:21;14.00;;;8.10;;
61460;SDS011;47325;50.506;4.472;2023-04-16T15:32:05;11.90;;;7.60;;
61460;SDS011;47325;50.506;4.472;2023-04-16T15:37:50;12.20;;;7.90;;
61460;SDS011;47325;50.506;4.472;2023-04-16T15:43:34;11.80;;;7.60;;
61460;SDS011;47325;50.506;4.472;2023-04-16T15:49:18;11.10;;;7.90;;
61460;SDS011;47325;50.506;4.472;2023-04-16T15:55:02;12.60;;;8.40;;
61460;SDS011;47325;50.506;4.472;2023-04-16T16:00:48;12.00;;;8.10;;
61460;SDS011;47325;50.506;4.472;2023-04-16T16:06:32;11.40;;;7.90;;
61460;SDS011;47325;50.506;4.472;2023-04-16T16:12:16;12.90;;;7.80;;
61460;SDS011;47325;50.506;4.472;2023-04-16T16:18:00;13.10;;;8.50;;
61460;SDS011;47325;50.506;4.472;2023-04-16T16:23:45;11.60;;;8.10;;
61460;SDS011;47325;50.506;4.472;2023-04-16T16:29:29;12.20;;;8.80;;
61460;SDS011;47325;50.506;4.472;2023-04-16T16:35:13;14.00;;;8.80;;
61460;SDS011;47325;50.506;4.472;2023-04-16T16:40:57;12.70;;;8.80;;
61460;SDS011;47325;50.506;4.472;2023-04-16T16:46:42;15.10;;;9.20;;
61460;SDS011;47325;50.506;4.472;2023-04-16T16:52:28;12.10;;;9.30;;
61460;SDS011;47325;50.506;4.472;2023-04-16T16:58:12;14.20;;;9.40;;
61460;SDS011;47325;50.506;4.472;2023-04-16T17:03:57;13.30;;;9.20;;
61460;SDS011;47325;50.506;4.472;2023-04-16T17:09:41;15.00;;;9.80;;
61460;SDS011;47325;50.506;4.472;2023-04-16T17:15:25;13.70;;;9.80;;
61460;SDS011;47325;50.506;4.472;2023-04-16T17:21:09;16.30;;;9.90;;
61460;SDS011;47325;50.506;4.472;2023-04-16T17:26:56;16.30;;;10.10;;
61460;SDS011;47325;50.506;4.472;2023-04-16T17:32:40;14.30;;;10.00;;
61460;SDS011;47325;50.506;4.472;2023-04-16T17:38:25;14.40;;;10.30;;
61460;SDS011;47325;50.506;4.472;2023-04-16T17:44:09;14.10;;;9.80;;
61460;SDS011;47325;50.506;4.472;2023-04-16T17:49:55;13.70;;;9.60;;
61460;SDS011;47325;50.506;4.472;2023-04-16T17:55:39;14.10;;;9.80;;
61460;SDS011;47325;50.506;4.472;2023-04-16T18:01:24;13.50;;;9.60;;
61460;SDS011;47325;50.506;4.472;2023-04-16T18:07:10;13.10;;;10.20;;
61460;SDS011;47325;50.506;4.472;2023-04-16T18:12:55;13.60;;;9.00;;
61460;SDS011;47325;50.506;4.472;2023-04-16T18:18:40;13.60;;;8.30;;
61460;SDS011;47325;50.506;4.472;2023-04-16T18:24:24;11.90;;;8.80;;
61460;SDS011;47325;50.506;4.472;2023-04-16T18:30:09;14.30;;;8.90;;
61460;SDS011;47325;50.506;4.472;2023-04-16T18:36:07;54.80;;;22.30;;
61460;SDS011;47325;50.506;4.472;2023-04-16T18:41:51;35.40;;;15.90;;
61460;SDS011;47325;50.506;4.472;2023-04-16T18:47:35;34.20;;;15.80;;
61460;SDS011;47325;50.506;4.472;2023-04-16T18:53:20;28.10;;;14.10;;
61460;SDS011;47325;50.506;4.472;2023-04-16T18:59:06;24.70;;;13.20;;
61460;SDS011;47325;50.506;4.472;2023-04-16T19:04:51;23.90;;;12.90;;
61460;SDS011;47325;50.506;4.472;2023-04-16T19:10:35;23.80;;;11.80;;
61460;SDS011;47325;50.506;4.472;2023-04-16T19:16:19;21.30;;;11.80;;
61460;SDS011;47325;50.506;4.472;2023-04-16T19:22:03;20.10;;;12.10;;
61460;SDS011;47325;50.506;4.472;2023-04-16T19:27:48;21.50;;;12.40;;
61460;SDS011;47325;50.506;4.472;2023-04-16T19:33:32;21.20;;;11.70;;
61460;SDS011;47325;50.506;4.472;2023-04-16T19:39:16;20.60;;;11.80;;
61460;SDS011;47325;50.506;4.472;2023-04-16T19:45:00;19.20;;;11.40;;
61460;SDS011;47325;50.506;4.472;2023-04-16T19:50:45;18.60;;;11.40;;
61460;SDS011;47325;50.506;4.472;2023-04-16T19:56:29;20.00;;;12.00;;
61460;SDS011;47325;50.506;4.472;2023-04-16T20:02:14;21.30;;;12.00;;
61460;SDS011;47325;50.506;4.472;2023-04-16T20:08:00;19.20;;;11.60;;
61460;SDS011;47325;50.506;4.472;2023-04-16T20:13:44;20.50;;;12.50;;
61460;SDS011;47325;50.506;4.472;2023-04-16T20:19:28;21.60;;;12.30;;
61460;SDS011;47325;50.506;4.472;2023-04-16T20:25:12;20.30;;;12.90;;
61460;SDS011;47325;50.506;4.472;2023-04-16T20:30:56;18.70;;;12.80;;
61460;SDS011;47325;50.506;4.472;2023-04-16T20:36:41;19.50;;;13.00;;
61460;SDS011;47325;50.506;4.472;2023-04-16T20:42:25;20.60;;;13.40;;
61460;SDS011;47325;50.506;4.472;2023-04-16T20:48:09;22.90;;;14.60;;
61460;SDS011;47325;50.506;4.472;2023-04-16T20:53:53;21.50;;;13.40;;
61460;SDS011;47325;50.506;4.472;2023-04-16T20:59:37;21.80;;;14.00;;
61460;SDS011;47325;50.506;4.472;2023-04-16T21:05:21;23.10;;;14.40;;
61460;SDS011;47325;50.506;4.472;2023-04-16T21:11:06;23.10;;;14.70;;
61460;SDS011;47325;50.506;4.472;2023-04-16T21:16:50;21.30;;;14.60;;
61460;SDS011;47325;50.506;4.472;2023-04-16T21:22:34;23.10;;;14.80;;
61460;SDS011;47325;50.506;4.472;2023-04-16T21:28:18;21.40;;;14.50;;
61460;SDS011;47325;50.506;4.472;2023-04-16T21:34:02;21.60;;;15.40;;
61460;SDS011;47325;50.506;4.472;2023-04-16T21:39:46;23.20;;;15.90;;
61460;SDS011;47325;50.506;4.472;2023-04-16T21:45:30;25.20;;;16.70;;
61460;SDS011;47325;50.506;4.472;2023-04-16T21:51:14;23.70;;;16.30;;
61460;SDS011;47325;50.506;4.472;2023-04-16T21:56:58;25.30;;;17.00;;
61460;SDS011;47325;50.506;4.472;2023-04-16T22:02:43;26.90;;;17.40;;
61460;SDS011;47325;50.506;4.472;2023-04-16T22:08:27;24.10;;;17.00;;
61460;SDS011;47325;50.506;4.472;2023-04-16T22:14:12;24.90;;;16.90;;
61460;SDS011;47325;50.506;4.472;2023-04-16T22:19:56;25.10;;;16.90;;
61460;SDS011;47325;50.506;4.472;2023-04-16T22:25:40;23.80;;;16.90;;
61460;SDS011;47325;50.506;4.472;2023-04-16T22:31:24;24.90;;;17.70;;
61460;SDS011;47325;50.506;4.472;2023-04-16T22:37:08;26.30;;;17.00;;
61460;SDS011;47325;50.506;4.472;2023-04-16T22:42:52;26.20;;;17.30;;
61460;SDS011;47325;50.506;4.472;2023-04-16T22:48:36;26.10;;;17.20;;
61460;SDS011;47325;50.506;4.472;2023-04-16T22:54:20;24.10;;;16.80;;
61460;SDS011;47325;50.506;4.472;2023-04-16T23:00:05;24.90;;;17.40;;
61460;SDS011;47325;50.506;4.472;2023-04-16T23:05:49;24.00;;;16.70;;
61460;SDS011;47325;50.506;4.472;2023-04-16T23:11:33;23.50;;;16.00;;
61460;SDS011;47325;50.506;4.472;2023-04-16T23:17:17;23.90;;;16.60;;
61460;SDS011;47325;50.506;4.472;2023-04-16T23:23:01;23.50;;;16.20;;
61460;SDS011;47325;50.506;4.472;2023-04-16T23:28:47;23.30;;;16.20;;
61460;SDS011;47325;50.506;4.472;2023-04-16T23:34:31;23.10;;;15.80;;
61460;SDS011;47325;50.506;4.472;2023-04-16T23:40:17;23.20;;;16.10;;
61460;SDS011;47325;50.506;4.472;2023-04-16T23:46:01;23.00;;;16.00;;
61460;SDS011;47325;50.506;4.472;2023-04-16T23:51:45;22.90;;;15.90;;
61460;SDS011;47325;50.506;4.472;2023-04-16T23:57:31;24.00;;;15.90;;
